sensor_id;sensor_type;location;lat;lon;timestamp;P1;durP1;ratioP1;P2;durP2;ratioP2
48993;SDS011;34804;49.214;12.276;2023-04-24T00:01:37;6.32;;;2.60;;
48993;SDS011;34804;49.214;12.276;2023-04-24T00:04:05;5.22;;;2.65;;
48993;SDS011;34804;49.214;12.276;2023-04-24T00:06:33;4.70;;;2.58;;
48993;SDS011;34804;49.214;12.276;2023-04-24T00:09:00;5.35;;;2.40;;
48993;SDS011;34804;49.214;12.276;2023-04-24T00:11:28;5.75;;;2.83;;
48993;SDS011;34804;49.214;12.276;2023-04-24T00:13:55;6.10;;;2.55;;
48993;SDS011;34804;49.214;12.276;2023-04-24T00:16:23;5.70;;;2.47;;
48993;SDS011;34804;49.214;12.276;2023-04-24T00:18:49;5.88;;;2.72;;
48993;SDS011;34804;49.214;12.276;2023-04-24T00:21:19;4.85;;;2.60;;
48993;SDS011;34804;49.214;12.276;2023-04-24T00:23:46;6.93;;;2.60;;
48993;SDS011;34804;49.214;12.276;2023-04-24T00:26:14;6.05;;;2.80;;
48993;SDS011;34804;49.214;12.276;2023-04-24T00:28:40;5.65;;;2.30;;
48993;SDS011;34804;49.214;12.276;2023-04-24T00:31:07;5.10;;;2.78;;
48993;SDS011;34804;49.214;12.276;2023-04-24T00:33:34;5.82;;;2.92;;
48993;SDS011;34804;49.214;12.276;2023-04-24T00:36:01;5.50;;;2.78;;
48993;SDS011;34804;49.214;12.276;2023-04-24T00:38:28;5.35;;;2.83;;
48993;SDS011;34804;49.214;12.276;2023-04-24T00:40:55;6.40;;;3.10;;
48993;SDS011;34804;49.214;12.276;2023-04-24T00:43:22;7.25;;;3.38;;
48993;SDS011;34804;49.214;12.276;2023-04-24T00:45:49;6.07;;;3.05;;
48993;SDS011;34804;49.214;12.276;2023-04-24T00:48:16;6.95;;;2.92;;
48993;SDS011;34804;49.214;12.276;2023-04-24T00:50:43;4.53;;;2.83;;
48993;SDS011;34804;49.214;12.276;2023-04-24T00:53:10;7.57;;;3.20;;
48993;SDS011;34804;49.214;12.276;2023-04-24T00:55:37;7.07;;;3.33;;
48993;SDS011;34804;49.214;12.276;2023-04-24T00:58:04;7.03;;;3.10;;
48993;SDS011;34804;49.214;12.276;2023-04-24T01:00:31;5.60;;;3.05;;
48993;SDS011;34804;49.214;12.276;2023-04-24T01:02:59;5.63;;;3.25;;
48993;SDS011;34804;49.214;12.276;2023-04-24T01:05:30;6.82;;;3.90;;
48993;SDS011;34804;49.214;12.276;2023-04-24T01:07:58;7.72;;;3.63;;
48993;SDS011;34804;49.214;12.276;2023-04-24T01:10:26;8.52;;;4.85;;
48993;SDS011;34804;49.214;12.276;2023-04-24T01:12:55;6.68;;;4.10;;
48993;SDS011;34804;49.214;12.276;2023-04-24T01:15:22;7.97;;;4.75;;
48993;SDS011;34804;49.214;12.276;2023-04-24T01:17:49;8.25;;;5.22;;
48993;SDS011;34804;49.214;12.276;2023-04-24T01:20:16;8.07;;;5.22;;
48993;SDS011;34804;49.214;12.276;2023-04-24T01:22:43;7.95;;;5.20;;
48993;SDS011;34804;49.214;12.276;2023-04-24T01:25:10;9.80;;;5.82;;
48993;SDS011;34804;49.214;12.276;2023-04-24T01:27:37;11.98;;;6.50;;
48993;SDS011;34804;49.214;12.276;2023-04-24T01:30:05;9.40;;;6.38;;
48993;SDS011;34804;49.214;12.276;2023-04-24T01:32:32;11.73;;;6.20;;
48993;SDS011;34804;49.214;12.276;2023-04-24T01:35:00;8.95;;;6.20;;
48993;SDS011;34804;49.214;12.276;2023-04-24T01:37:27;9.50;;;6.55;;
48993;SDS011;34804;49.214;12.276;2023-04-24T01:39:55;8.40;;;6.30;;
48993;SDS011;34804;49.214;12.276;2023-04-24T01:42:22;8.63;;;5.80;;
48993;SDS011;34804;49.214;12.276;2023-04-24T01:44:49;9.85;;;6.53;;
48993;SDS011;34804;49.214;12.276;2023-04-24T01:47:17;11.30;;;7.28;;
48993;SDS011;34804;49.214;12.276;2023-04-24T01:49:44;9.57;;;6.07;;
48993;SDS011;34804;49.214;12.276;2023-04-24T01:52:13;11.10;;;7.30;;
48993;SDS011;34804;49.214;12.276;2023-04-24T01:54:40;8.18;;;5.97;;
48993;SDS011;34804;49.214;12.276;2023-04-24T01:57:07;9.63;;;5.68;;
48993;SDS011;34804;49.214;12.276;2023-04-24T01:59:34;8.52;;;5.60;;
48993;SDS011;34804;49.214;12.276;2023-04-24T02:02:02;8.15;;;5.75;;
48993;SDS011;34804;49.214;12.276;2023-04-24T02:04:30;8.40;;;5.45;;
48993;SDS011;34804;49.214;12.276;2023-04-24T02:06:57;9.45;;;5.97;;
48993;SDS011;34804;49.214;12.276;2023-04-24T02:09:23;7.95;;;5.78;;
48993;SDS011;34804;49.214;12.276;2023-04-24T02:11:51;9.10;;;6.15;;
48993;SDS011;34804;49.214;12.276;2023-04-24T02:14:17;8.00;;;5.20;;
48993;SDS011;34804;49.214;12.276;2023-04-24T02:16:44;8.82;;;5.50;;
48993;SDS011;34804;49.214;12.276;2023-04-24T02:19:12;10.05;;;6.00;;
48993;SDS011;34804;49.214;12.276;2023-04-24T02:21:38;7.38;;;5.10;;
48993;SDS011;34804;49.214;12.276;2023-04-24T02:24:05;8.73;;;5.35;;
48993;SDS011;34804;49.214;12.276;2023-04-24T02:26:32;7.65;;;5.43;;
48993;SDS011;34804;49.214;12.276;2023-04-24T02:28:59;7.43;;;5.15;;
48993;SDS011;34804;49.214;12.276;2023-04-24T02:31:26;8.32;;;5.55;;
48993;SDS011;34804;49.214;12.276;2023-04-24T02:33:52;9.02;;;6.05;;
48993;SDS011;34804;49.214;12.276;2023-04-24T02:36:19;8.95;;;5.65;;
48993;SDS011;34804;49.214;12.276;2023-04-24T02:38:47;8.88;;;6.50;;
48993;SDS011;34804;49.214;12.276;2023-04-24T02:41:14;8.90;;;5.57;;
48993;SDS011;34804;49.214;12.276;2023-04-24T02:43:40;8.80;;;5.75;;
48993;SDS011;34804;49.214;12.276;2023-04-24T02:46:07;10.13;;;5.53;;
48993;SDS011;34804;49.214;12.276;2023-04-24T02:48:34;10.05;;;6.30;;
48993;SDS011;34804;49.214;12.276;2023-04-24T02:51:01;9.25;;;6.90;;
48993;SDS011;34804;49.214;12.276;2023-04-24T02:53:28;12.30;;;6.82;;
48993;SDS011;34804;49.214;12.276;2023-04-24T02:55:56;9.15;;;5.97;;
48993;SDS011;34804;49.214;12.276;2023-04-24T02:58:23;8.55;;;6.07;;
48993;SDS011;34804;49.214;12.276;2023-04-24T03:00:53;8.63;;;6.10;;
48993;SDS011;34804;49.214;12.276;2023-04-24T03:03:23;8.95;;;5.82;;
48993;SDS011;34804;49.214;12.276;2023-04-24T03:05:51;12.38;;;6.75;;
48993;SDS011;34804;49.214;12.276;2023-04-24T03:08:18;10.10;;;5.93;;
48993;SDS011;34804;49.214;12.276;2023-04-24T03:10:45;9.25;;;6.30;;
48993;SDS011;34804;49.214;12.276;2023-04-24T03:13:13;9.35;;;6.05;;
48993;SDS011;34804;49.214;12.276;2023-04-24T03:15:41;10.63;;;6.45;;
48993;SDS011;34804;49.214;12.276;2023-04-24T03:18:08;10.48;;;6.20;;
48993;SDS011;34804;49.214;12.276;2023-04-24T03:20:34;10.57;;;7.30;;
48993;SDS011;34804;49.214;12.276;2023-04-24T03:23:03;13.73;;;7.07;;
48993;SDS011;34804;49.214;12.276;2023-04-24T03:25:30;10.18;;;7.03;;
48993;SDS011;34804;49.214;12.276;2023-04-24T03:27:57;10.82;;;7.18;;
48993;SDS011;34804;49.214;12.276;2023-04-24T03:30:24;9.93;;;6.43;;
48993;SDS011;34804;49.214;12.276;2023-04-24T03:32:50;12.93;;;7.35;;
48993;SDS011;34804;49.214;12.276;2023-04-24T03:35:17;10.00;;;6.97;;
48993;SDS011;34804;49.214;12.276;2023-04-24T03:37:45;11.30;;;7.90;;
48993;SDS011;34804;49.214;12.276;2023-04-24T03:40:12;14.40;;;8.13;;
48993;SDS011;34804;49.214;12.276;2023-04-24T03:42:38;14.55;;;8.27;;
48993;SDS011;34804;49.214;12.276;2023-04-24T03:45:06;14.43;;;8.45;;
48993;SDS011;34804;49.214;12.276;2023-04-24T03:47:33;11.27;;;7.85;;
48993;SDS011;34804;49.214;12.276;2023-04-24T03:50:00;14.73;;;8.10;;
48993;SDS011;34804;49.214;12.276;2023-04-24T03:52:27;13.43;;;7.07;;
48993;SDS011;34804;49.214;12.276;2023-04-24T03:54:54;10.48;;;6.68;;
48993;SDS011;34804;49.214;12.276;2023-04-24T03:57:21;10.63;;;6.75;;
48993;SDS011;34804;49.214;12.276;2023-04-24T03:59:48;13.88;;;8.13;;
48993;SDS011;34804;49.214;12.276;2023-04-24T04:02:15;13.43;;;7.70;;
48993;SDS011;34804;49.214;12.276;2023-04-24T04:04:42;12.10;;;7.85;;
48993;SDS011;34804;49.214;12.276;2023-04-24T04:07:09;13.68;;;9.07;;
48993;SDS011;34804;49.214;12.276;2023-04-24T04:09:36;9.05;;;6.25;;
48993;SDS011;34804;49.214;12.276;2023-04-24T04:12:03;11.10;;;6.30;;
48993;SDS011;34804;49.214;12.276;2023-04-24T04:14:29;11.18;;;6.25;;
48993;SDS011;34804;49.214;12.276;2023-04-24T04:16:56;12.75;;;6.55;;
48993;SDS011;34804;49.214;12.276;2023-04-24T04:19:23;12.18;;;7.45;;
48993;SDS011;34804;49.214;12.276;2023-04-24T04:21:50;10.05;;;6.72;;
48993;SDS011;34804;49.214;12.276;2023-04-24T04:24:19;13.32;;;7.80;;
48993;SDS011;34804;49.214;12.276;2023-04-24T04:26:50;12.80;;;7.20;;
48993;SDS011;34804;49.214;12.276;2023-04-24T04:29:18;13.20;;;8.32;;
48993;SDS011;34804;49.214;12.276;2023-04-24T04:31:45;12.43;;;8.02;;
48993;SDS011;34804;49.214;12.276;2023-04-24T04:34:12;10.77;;;7.38;;
48993;SDS011;34804;49.214;12.276;2023-04-24T04:36:40;12.50;;;7.78;;
48993;SDS011;34804;49.214;12.276;2023-04-24T04:39:07;9.95;;;7.45;;
48993;SDS011;34804;49.214;12.276;2023-04-24T04:41:34;10.73;;;7.20;;
48993;SDS011;34804;49.214;12.276;2023-04-24T04:44:01;10.05;;;6.65;;
48993;SDS011;34804;49.214;12.276;2023-04-24T04:46:30;11.88;;;6.72;;
48993;SDS011;34804;49.214;12.276;2023-04-24T04:49:03;9.38;;;6.30;;
48993;SDS011;34804;49.214;12.276;2023-04-24T04:51:30;11.27;;;6.22;;
48993;SDS011;34804;49.214;12.276;2023-04-24T04:53:57;9.85;;;6.85;;
48993;SDS011;34804;49.214;12.276;2023-04-24T04:56:24;9.48;;;6.32;;
48993;SDS011;34804;49.214;12.276;2023-04-24T04:58:50;8.45;;;5.57;;
48993;SDS011;34804;49.214;12.276;2023-04-24T05:01:17;10.10;;;6.32;;
48993;SDS011;34804;49.214;12.276;2023-04-24T05:03:44;8.80;;;6.10;;
48993;SDS011;34804;49.214;12.276;2023-04-24T05:06:11;9.77;;;6.50;;
48993;SDS011;34804;49.214;12.276;2023-04-24T05:08:38;9.75;;;5.65;;
48993;SDS011;34804;49.214;12.276;2023-04-24T05:11:06;9.20;;;5.90;;
48993;SDS011;34804;49.214;12.276;2023-04-24T05:13:33;8.98;;;6.28;;
48993;SDS011;34804;49.214;12.276;2023-04-24T05:16:06;12.38;;;6.10;;
48993;SDS011;34804;49.214;12.276;2023-04-24T05:18:33;10.70;;;6.28;;
48993;SDS011;34804;49.214;12.276;2023-04-24T05:21:00;8.23;;;5.57;;
48993;SDS011;34804;49.214;12.276;2023-04-24T05:23:28;9.13;;;5.75;;
48993;SDS011;34804;49.214;12.276;2023-04-24T05:25:55;11.25;;;6.40;;
48993;SDS011;34804;49.214;12.276;2023-04-24T05:28:21;9.27;;;5.60;;
48993;SDS011;34804;49.214;12.276;2023-04-24T05:30:48;8.50;;;5.63;;
48993;SDS011;34804;49.214;12.276;2023-04-24T05:33:15;8.35;;;5.63;;
48993;SDS011;34804;49.214;12.276;2023-04-24T05:35:42;9.40;;;5.72;;
48993;SDS011;34804;49.214;12.276;2023-04-24T05:38:13;7.97;;;5.35;;
48993;SDS011;34804;49.214;12.276;2023-04-24T05:40:40;8.52;;;5.20;;
48993;SDS011;34804;49.214;12.276;2023-04-24T05:43:07;7.95;;;4.82;;
48993;SDS011;34804;49.214;12.276;2023-04-24T05:45:34;9.32;;;5.38;;
48993;SDS011;34804;49.214;12.276;2023-04-24T05:48:02;7.82;;;4.05;;
48993;SDS011;34804;49.214;12.276;2023-04-24T05:50:30;8.32;;;5.50;;
48993;SDS011;34804;49.214;12.276;2023-04-24T05:52:57;6.82;;;4.00;;
48993;SDS011;34804;49.214;12.276;2023-04-24T05:55:28;7.30;;;4.05;;
48993;SDS011;34804;49.214;12.276;2023-04-24T05:57:55;7.63;;;4.07;;
48993;SDS011;34804;49.214;12.276;2023-04-24T06:00:21;6.25;;;4.00;;
48993;SDS011;34804;49.214;12.276;2023-04-24T06:02:50;6.45;;;3.60;;
48993;SDS011;34804;49.214;12.276;2023-04-24T06:05:20;5.72;;;3.60;;
48993;SDS011;34804;49.214;12.276;2023-04-24T06:07:47;6.20;;;3.38;;
48993;SDS011;34804;49.214;12.276;2023-04-24T06:10:14;6.00;;;3.90;;
48993;SDS011;34804;49.214;12.276;2023-04-24T06:12:41;6.15;;;3.90;;
48993;SDS011;34804;49.214;12.276;2023-04-24T06:15:08;6.88;;;3.75;;
48993;SDS011;34804;49.214;12.276;2023-04-24T06:17:36;6.35;;;3.53;;
48993;SDS011;34804;49.214;12.276;2023-04-24T06:20:03;5.55;;;3.65;;
48993;SDS011;34804;49.214;12.276;2023-04-24T06:22:32;7.32;;;3.95;;
48993;SDS011;34804;49.214;12.276;2023-04-24T06:25:00;10.35;;;3.85;;
48993;SDS011;34804;49.214;12.276;2023-04-24T06:27:28;6.15;;;3.60;;
48993;SDS011;34804;49.214;12.276;2023-04-24T06:29:55;6.15;;;3.42;;
48993;SDS011;34804;49.214;12.276;2023-04-24T06:32:22;7.68;;;3.90;;
48993;SDS011;34804;49.214;12.276;2023-04-24T06:34:51;6.72;;;3.67;;
48993;SDS011;34804;49.214;12.276;2023-04-24T06:37:19;6.35;;;3.40;;
48993;SDS011;34804;49.214;12.276;2023-04-24T06:39:46;7.05;;;4.20;;
48993;SDS011;34804;49.214;12.276;2023-04-24T06:42:13;5.53;;;2.75;;
48993;SDS011;34804;49.214;12.276;2023-04-24T06:44:40;6.30;;;3.35;;
48993;SDS011;34804;49.214;12.276;2023-04-24T06:47:08;5.13;;;3.03;;
48993;SDS011;34804;49.214;12.276;2023-04-24T06:49:36;7.05;;;3.15;;
48993;SDS011;34804;49.214;12.276;2023-04-24T06:52:03;7.63;;;3.05;;
48993;SDS011;34804;49.214;12.276;2023-04-24T06:54:31;8.63;;;3.17;;
48993;SDS011;34804;49.214;12.276;2023-04-24T06:56:58;6.72;;;2.65;;
48993;SDS011;34804;49.214;12.276;2023-04-24T06:59:27;4.88;;;2.90;;
48993;SDS011;34804;49.214;12.276;2023-04-24T07:01:54;6.70;;;2.60;;
48993;SDS011;34804;49.214;12.276;2023-04-24T07:04:22;5.13;;;2.90;;
48993;SDS011;34804;49.214;12.276;2023-04-24T07:06:52;4.55;;;2.78;;
48993;SDS011;34804;49.214;12.276;2023-04-24T07:09:23;5.30;;;2.67;;
48993;SDS011;34804;49.214;12.276;2023-04-24T07:11:51;4.63;;;2.42;;
48993;SDS011;34804;49.214;12.276;2023-04-24T07:14:19;5.03;;;2.50;;
48993;SDS011;34804;49.214;12.276;2023-04-24T07:16:46;5.65;;;2.22;;
48993;SDS011;34804;49.214;12.276;2023-04-24T07:19:13;5.28;;;2.35;;
48993;SDS011;34804;49.214;12.276;2023-04-24T07:21:41;3.97;;;1.92;;
48993;SDS011;34804;49.214;12.276;2023-04-24T07:24:08;6.35;;;2.10;;
48993;SDS011;34804;49.214;12.276;2023-04-24T07:26:39;4.30;;;2.28;;
48993;SDS011;34804;49.214;12.276;2023-04-24T07:29:07;3.35;;;1.83;;
48993;SDS011;34804;49.214;12.276;2023-04-24T07:31:34;5.18;;;2.10;;
48993;SDS011;34804;49.214;12.276;2023-04-24T07:34:02;4.88;;;1.90;;
48993;SDS011;34804;49.214;12.276;2023-04-24T07:36:29;4.32;;;2.05;;
48993;SDS011;34804;49.214;12.276;2023-04-24T07:38:56;2.95;;;1.70;;
48993;SDS011;34804;49.214;12.276;2023-04-24T07:41:23;3.35;;;1.45;;
48993;SDS011;34804;49.214;12.276;2023-04-24T07:43:51;4.97;;;2.58;;
48993;SDS011;34804;49.214;12.276;2023-04-24T07:46:20;3.83;;;1.65;;
48993;SDS011;34804;49.214;12.276;2023-04-24T07:48:47;5.25;;;1.58;;
48993;SDS011;34804;49.214;12.276;2023-04-24T07:51:32;4.10;;;1.55;;
48993;SDS011;34804;49.214;12.276;2023-04-24T07:54:04;3.75;;;1.50;;
48993;SDS011;34804;49.214;12.276;2023-04-24T07:56:34;5.13;;;1.50;;
48993;SDS011;34804;49.214;12.276;2023-04-24T07:59:05;2.65;;;1.40;;
48993;SDS011;34804;49.214;12.276;2023-04-24T08:01:32;3.47;;;1.27;;
48993;SDS011;34804;49.214;12.276;2023-04-24T08:03:59;3.08;;;1.55;;
48993;SDS011;34804;49.214;12.276;2023-04-24T08:06:27;2.90;;;1.30;;
48993;SDS011;34804;49.214;12.276;2023-04-24T08:08:57;3.65;;;1.20;;
48993;SDS011;34804;49.214;12.276;2023-04-24T08:11:28;5.57;;;1.30;;
48993;SDS011;34804;49.214;12.276;2023-04-24T08:13:55;3.05;;;1.30;;
48993;SDS011;34804;49.214;12.276;2023-04-24T08:16:22;2.97;;;1.33;;
48993;SDS011;34804;49.214;12.276;2023-04-24T08:18:50;3.50;;;1.40;;
48993;SDS011;34804;49.214;12.276;2023-04-24T08:21:18;3.47;;;1.35;;
48993;SDS011;34804;49.214;12.276;2023-04-24T08:23:46;3.10;;;1.15;;
48993;SDS011;34804;49.214;12.276;2023-04-24T08:26:13;3.05;;;1.02;;
48993;SDS011;34804;49.214;12.276;2023-04-24T08:28:40;3.40;;;1.10;;
48993;SDS011;34804;49.214;12.276;2023-04-24T08:31:07;3.50;;;1.00;;
48993;SDS011;34804;49.214;12.276;2023-04-24T08:33:34;2.15;;;1.02;;
48993;SDS011;34804;49.214;12.276;2023-04-24T08:36:02;2.70;;;1.00;;
48993;SDS011;34804;49.214;12.276;2023-04-24T08:38:31;2.67;;;0.90;;
48993;SDS011;34804;49.214;12.276;2023-04-24T08:40:58;2.53;;;0.73;;
48993;SDS011;34804;49.214;12.276;2023-04-24T08:43:27;1.17;;;0.80;;
48993;SDS011;34804;49.214;12.276;2023-04-24T08:45:55;1.88;;;0.73;;
48993;SDS011;34804;49.214;12.276;2023-04-24T08:48:23;2.10;;;0.98;;
48993;SDS011;34804;49.214;12.276;2023-04-24T08:50:57;3.22;;;1.10;;
48993;SDS011;34804;49.214;12.276;2023-04-24T08:53:25;2.58;;;0.98;;
48993;SDS011;34804;49.214;12.276;2023-04-24T08:55:54;5.93;;;1.00;;
48993;SDS011;34804;49.214;12.276;2023-04-24T08:58:22;2.33;;;0.90;;
48993;SDS011;34804;49.214;12.276;2023-04-24T09:00:54;3.55;;;1.30;;
48993;SDS011;34804;49.214;12.276;2023-04-24T09:03:22;3.03;;;1.15;;
48993;SDS011;34804;49.214;12.276;2023-04-24T09:05:50;2.25;;;1.00;;
48993;SDS011;34804;49.214;12.276;2023-04-24T09:08:19;3.95;;;1.40;;
48993;SDS011;34804;49.214;12.276;2023-04-24T09:10:47;3.13;;;0.90;;
48993;SDS011;34804;49.214;12.276;2023-04-24T09:13:16;2.13;;;0.98;;
48993;SDS011;34804;49.214;12.276;2023-04-24T09:15:46;4.50;;;1.42;;
48993;SDS011;34804;49.214;12.276;2023-04-24T09:18:13;4.07;;;1.33;;
48993;SDS011;34804;49.214;12.276;2023-04-24T09:21:00;4.20;;;2.00;;
48993;SDS011;34804;49.214;12.276;2023-04-24T09:23:29;6.20;;;2.00;;
48993;SDS011;34804;49.214;12.276;2023-04-24T09:25:58;3.00;;;1.60;;
48993;SDS011;34804;49.214;12.276;2023-04-24T09:28:30;3.55;;;1.60;;
48993;SDS011;34804;49.214;12.276;2023-04-24T09:31:05;3.38;;;1.55;;
48993;SDS011;34804;49.214;12.276;2023-04-24T09:33:33;7.82;;;1.90;;
48993;SDS011;34804;49.214;12.276;2023-04-24T09:36:01;3.53;;;1.60;;
48993;SDS011;34804;49.214;12.276;2023-04-24T09:38:30;4.40;;;1.52;;
48993;SDS011;34804;49.214;12.276;2023-04-24T09:41:02;5.47;;;1.50;;
48993;SDS011;34804;49.214;12.276;2023-04-24T09:43:31;4.45;;;2.03;;
48993;SDS011;34804;49.214;12.276;2023-04-24T09:45:58;3.45;;;1.40;;
48993;SDS011;34804;49.214;12.276;2023-04-24T09:48:33;3.22;;;1.50;;
48993;SDS011;34804;49.214;12.276;2023-04-24T09:51:02;3.60;;;1.75;;
48993;SDS011;34804;49.214;12.276;2023-04-24T09:53:30;6.32;;;1.42;;
48993;SDS011;34804;49.214;12.276;2023-04-24T09:56:07;4.32;;;1.30;;
48993;SDS011;34804;49.214;12.276;2023-04-24T09:58:35;5.45;;;1.38;;
48993;SDS011;34804;49.214;12.276;2023-04-24T10:01:03;4.90;;;1.38;;
48993;SDS011;34804;49.214;12.276;2023-04-24T10:03:30;3.35;;;1.20;;
48993;SDS011;34804;49.214;12.276;2023-04-24T10:06:01;3.90;;;1.25;;
48993;SDS011;34804;49.214;12.276;2023-04-24T10:08:35;5.18;;;1.70;;
48993;SDS011;34804;49.214;12.276;2023-04-24T10:11:03;4.72;;;1.42;;
48993;SDS011;34804;49.214;12.276;2023-04-24T10:13:31;3.35;;;1.38;;
48993;SDS011;34804;49.214;12.276;2023-04-24T10:15:58;3.35;;;1.45;;
48993;SDS011;34804;49.214;12.276;2023-04-24T10:18:27;3.97;;;1.40;;
48993;SDS011;34804;49.214;12.276;2023-04-24T10:20:54;5.28;;;1.42;;
48993;SDS011;34804;49.214;12.276;2023-04-24T10:23:22;2.35;;;1.20;;
48993;SDS011;34804;49.214;12.276;2023-04-24T10:25:51;2.90;;;1.38;;
48993;SDS011;34804;49.214;12.276;2023-04-24T10:28:19;4.13;;;1.60;;
48993;SDS011;34804;49.214;12.276;2023-04-24T10:30:48;3.97;;;1.45;;
48993;SDS011;34804;49.214;12.276;2023-04-24T10:33:17;3.15;;;1.60;;
48993;SDS011;34804;49.214;12.276;2023-04-24T10:35:45;2.88;;;1.20;;
48993;SDS011;34804;49.214;12.276;2023-04-24T10:38:17;3.70;;;1.48;;
48993;SDS011;34804;49.214;12.276;2023-04-24T10:40:50;2.42;;;1.23;;
48993;SDS011;34804;49.214;12.276;2023-04-24T10:43:18;3.67;;;1.42;;
48993;SDS011;34804;49.214;12.276;2023-04-24T10:46:01;4.53;;;1.55;;
48993;SDS011;34804;49.214;12.276;2023-04-24T10:48:29;4.20;;;1.60;;
48993;SDS011;34804;49.214;12.276;2023-04-24T10:50:57;3.72;;;1.40;;
48993;SDS011;34804;49.214;12.276;2023-04-24T10:53:29;4.00;;;1.20;;
48993;SDS011;34804;49.214;12.276;2023-04-24T10:58:37;2.72;;;1.20;;
48993;SDS011;34804;49.214;12.276;2023-04-24T11:01:27;2.53;;;1.27;;
48993;SDS011;34804;49.214;12.276;2023-04-24T11:04:02;3.67;;;1.30;;
48993;SDS011;34804;49.214;12.276;2023-04-24T11:09:08;3.30;;;1.13;;
48993;SDS011;34804;49.214;12.276;2023-04-24T11:11:44;2.70;;;1.27;;
48993;SDS011;34804;49.214;12.276;2023-04-24T11:17:01;5.55;;;1.48;;
48993;SDS011;34804;49.214;12.276;2023-04-24T11:19:28;2.63;;;1.25;;
48993;SDS011;34804;49.214;12.276;2023-04-24T11:24:29;2.45;;;1.10;;
48993;SDS011;34804;49.214;12.276;2023-04-24T11:29:37;2.58;;;1.30;;
48993;SDS011;34804;49.214;12.276;2023-04-24T11:32:14;2.55;;;0.82;;
48993;SDS011;34804;49.214;12.276;2023-04-24T11:34:46;2.63;;;1.17;;
48993;SDS011;34804;49.214;12.276;2023-04-24T11:37:21;2.63;;;1.20;;
48993;SDS011;34804;49.214;12.276;2023-04-24T11:39:50;4.40;;;1.48;;
48993;SDS011;34804;49.214;12.276;2023-04-24T11:42:18;2.25;;;1.30;;
48993;SDS011;34804;49.214;12.276;2023-04-24T11:44:47;4.10;;;1.30;;
48993;SDS011;34804;49.214;12.276;2023-04-24T11:47:15;3.17;;;1.30;;
48993;SDS011;34804;49.214;12.276;2023-04-24T11:49:43;3.13;;;1.00;;
48993;SDS011;34804;49.214;12.276;2023-04-24T11:52:10;4.05;;;1.20;;
48993;SDS011;34804;49.214;12.276;2023-04-24T11:54:37;4.15;;;1.45;;
48993;SDS011;34804;49.214;12.276;2023-04-24T11:57:05;3.13;;;1.55;;
48993;SDS011;34804;49.214;12.276;2023-04-24T11:59:36;3.30;;;1.42;;
48993;SDS011;34804;49.214;12.276;2023-04-24T12:02:04;4.55;;;1.30;;
48993;SDS011;34804;49.214;12.276;2023-04-24T12:04:39;3.35;;;1.50;;
48993;SDS011;34804;49.214;12.276;2023-04-24T12:07:07;3.60;;;1.20;;
48993;SDS011;34804;49.214;12.276;2023-04-24T12:09:43;3.33;;;1.30;;
48993;SDS011;34804;49.214;12.276;2023-04-24T12:12:17;2.90;;;1.23;;
48993;SDS011;34804;49.214;12.276;2023-04-24T12:14:57;4.28;;;1.17;;
48993;SDS011;34804;49.214;12.276;2023-04-24T12:20:01;2.28;;;1.30;;
48993;SDS011;34804;49.214;12.276;2023-04-24T12:22:45;3.15;;;1.20;;
48993;SDS011;34804;49.214;12.276;2023-04-24T12:25:22;2.83;;;1.27;;
48993;SDS011;34804;49.214;12.276;2023-04-24T12:27:55;4.97;;;1.30;;
48993;SDS011;34804;49.214;12.276;2023-04-24T12:30:32;3.67;;;1.50;;
48993;SDS011;34804;49.214;12.276;2023-04-24T12:33:01;3.50;;;1.48;;
48993;SDS011;34804;49.214;12.276;2023-04-24T12:35:29;4.15;;;1.48;;
48993;SDS011;34804;49.214;12.276;2023-04-24T12:38:05;2.53;;;1.10;;
48993;SDS011;34804;49.214;12.276;2023-04-24T12:40:36;4.07;;;1.38;;
48993;SDS011;34804;49.214;12.276;2023-04-24T12:43:12;4.85;;;0.98;;
48993;SDS011;34804;49.214;12.276;2023-04-24T12:45:40;3.88;;;1.10;;
48993;SDS011;34804;49.214;12.276;2023-04-24T12:48:06;2.70;;;1.20;;
48993;SDS011;34804;49.214;12.276;2023-04-24T12:50:33;3.05;;;1.20;;
48993;SDS011;34804;49.214;12.276;2023-04-24T12:53:00;3.25;;;1.10;;
48993;SDS011;34804;49.214;12.276;2023-04-24T12:55:27;2.97;;;1.02;;
48993;SDS011;34804;49.214;12.276;2023-04-24T12:57:54;2.13;;;0.98;;
48993;SDS011;34804;49.214;12.276;2023-04-24T13:00:22;2.33;;;1.00;;
48993;SDS011;34804;49.214;12.276;2023-04-24T13:02:49;3.30;;;1.10;;
48993;SDS011;34804;49.214;12.276;2023-04-24T13:05:16;2.63;;;1.00;;
48993;SDS011;34804;49.214;12.276;2023-04-24T13:07:43;2.25;;;0.85;;
48993;SDS011;34804;49.214;12.276;2023-04-24T13:10:10;1.75;;;0.75;;
48993;SDS011;34804;49.214;12.276;2023-04-24T13:12:37;2.60;;;1.10;;
48993;SDS011;34804;49.214;12.276;2023-04-24T13:15:05;2.50;;;1.00;;
48993;SDS011;34804;49.214;12.276;2023-04-24T13:17:33;3.90;;;1.00;;
48993;SDS011;34804;49.214;12.276;2023-04-24T13:20:00;2.28;;;0.88;;
48993;SDS011;34804;49.214;12.276;2023-04-24T13:22:29;4.53;;;1.20;;
48993;SDS011;34804;49.214;12.276;2023-04-24T13:24:55;2.63;;;0.90;;
48993;SDS011;34804;49.214;12.276;2023-04-24T13:27:23;4.00;;;1.30;;
48993;SDS011;34804;49.214;12.276;2023-04-24T13:29:50;4.75;;;1.10;;
48993;SDS011;34804;49.214;12.276;2023-04-24T13:32:17;3.42;;;1.00;;
48993;SDS011;34804;49.214;12.276;2023-04-24T13:34:44;4.85;;;1.10;;
48993;SDS011;34804;49.214;12.276;2023-04-24T13:37:11;3.47;;;1.20;;
48993;SDS011;34804;49.214;12.276;2023-04-24T13:39:38;3.92;;;1.13;;
48993;SDS011;34804;49.214;12.276;2023-04-24T13:42:04;2.40;;;0.80;;
48993;SDS011;34804;49.214;12.276;2023-04-24T13:44:31;2.53;;;1.00;;
48993;SDS011;34804;49.214;12.276;2023-04-24T13:46:58;3.65;;;1.10;;
48993;SDS011;34804;49.214;12.276;2023-04-24T13:49:26;2.80;;;1.10;;
48993;SDS011;34804;49.214;12.276;2023-04-24T13:51:54;2.53;;;1.10;;
48993;SDS011;34804;49.214;12.276;2023-04-24T13:54:21;4.95;;;1.05;;
48993;SDS011;34804;49.214;12.276;2023-04-24T13:56:51;2.13;;;1.05;;
48993;SDS011;34804;49.214;12.276;2023-04-24T13:59:19;2.28;;;1.30;;
48993;SDS011;34804;49.214;12.276;2023-04-24T14:01:47;4.40;;;1.63;;
48993;SDS011;34804;49.214;12.276;2023-04-24T14:04:15;2.65;;;1.13;;
48993;SDS011;34804;49.214;12.276;2023-04-24T14:06:43;3.25;;;1.30;;
48993;SDS011;34804;49.214;12.276;2023-04-24T14:09:10;2.65;;;1.05;;
48993;SDS011;34804;49.214;12.276;2023-04-24T14:11:36;2.95;;;1.40;;
48993;SDS011;34804;49.214;12.276;2023-04-24T14:14:03;3.10;;;1.27;;
48993;SDS011;34804;49.214;12.276;2023-04-24T14:16:31;3.40;;;1.35;;
48993;SDS011;34804;49.214;12.276;2023-04-24T14:18:59;3.30;;;1.20;;
48993;SDS011;34804;49.214;12.276;2023-04-24T14:21:26;1.52;;;0.95;;
48993;SDS011;34804;49.214;12.276;2023-04-24T14:23:53;3.67;;;1.50;;
48993;SDS011;34804;49.214;12.276;2023-04-24T14:26:20;3.00;;;1.20;;
48993;SDS011;34804;49.214;12.276;2023-04-24T14:28:47;3.85;;;1.20;;
48993;SDS011;34804;49.214;12.276;2023-04-24T14:31:16;3.33;;;1.50;;
48993;SDS011;34804;49.214;12.276;2023-04-24T14:33:43;3.97;;;1.27;;
48993;SDS011;34804;49.214;12.276;2023-04-24T14:36:10;2.75;;;1.17;;
48993;SDS011;34804;49.214;12.276;2023-04-24T14:38:37;2.20;;;0.93;;
48993;SDS011;34804;49.214;12.276;2023-04-24T14:41:04;2.80;;;1.27;;
48993;SDS011;34804;49.214;12.276;2023-04-24T14:43:36;4.47;;;1.60;;
48993;SDS011;34804;49.214;12.276;2023-04-24T14:46:03;4.38;;;1.40;;
48993;SDS011;34804;49.214;12.276;2023-04-24T14:48:31;2.65;;;1.38;;
48993;SDS011;34804;49.214;12.276;2023-04-24T14:50:59;3.13;;;1.20;;
48993;SDS011;34804;49.214;12.276;2023-04-24T14:53:25;3.83;;;1.10;;
48993;SDS011;34804;49.214;12.276;2023-04-24T14:55:53;2.03;;;0.90;;